createdAt,value
2022-08-02T00:00:01.422Z,38.86
2022-08-02T00:00:15.277Z,38.75
2022-08-02T00:00:28.539Z,38.73
2022-08-02T00:00:41.394Z,38.74
2022-08-02T00:00:55.752Z,38.75
2022-08-02T00:01:08.839Z,38.67
2022-08-02T00:01:22.072Z,38.63
2022-08-02T00:01:36.167Z,38.58
2022-08-02T00:01:49.197Z,38.57
2022-08-02T00:02:04.213Z,38.55
2022-08-02T00:02:17.877Z,38.53
2022-08-02T00:02:30.821Z,38.54
2022-08-02T00:02:44.517Z,38.53
2022-08-02T00:02:57.397Z,38.60
2022-08-02T00:03:10.419Z,38.68
2022-08-02T00:03:24.421Z,38.68
2022-08-02T00:03:37.588Z,38.63
2022-08-02T00:03:51.523Z,38.64
2022-08-02T00:04:05.810Z,38.70
2022-08-02T00:04:18.707Z,38.59
2022-08-02T00:04:32.310Z,38.57
2022-08-02T00:04:45.694Z,38.56
2022-08-02T00:04:58.658Z,38.60
2022-08-02T00:05:11.677Z,38.59
2022-08-02T00:05:24.597Z,38.60
2022-08-02T00:05:37.591Z,38.62
2022-08-02T00:05:54.036Z,38.63
2022-08-02T00:06:07.154Z,38.61
2022-08-02T00:06:20.061Z,38.58
2022-08-02T00:06:33.171Z,38.53
2022-08-02T00:06:46.219Z,38.59
2022-08-02T00:06:59.104Z,38.56
2022-08-02T00:07:12.147Z,38.53
2022-08-02T00:07:25.093Z,38.57
2022-08-02T00:07:41.228Z,38.58
2022-08-02T00:07:54.473Z,38.57
2022-08-02T00:08:07.476Z,38.51
2022-08-02T00:08:20.404Z,38.60
2022-08-02T00:08:33.463Z,38.54
2022-08-02T00:08:46.342Z,38.57
2022-08-02T00:08:59.226Z,38.64
2022-08-02T00:09:12.066Z,38.47
2022-08-02T00:09:24.915Z,38.52
2022-08-02T00:09:38.007Z,38.53
2022-08-02T00:09:50.914Z,38.57
2022-08-02T00:10:04.763Z,38.65
2022-08-02T00:10:22.349Z,38.65
2022-08-02T00:10:35.234Z,38.66
2022-08-02T00:10:48.239Z,38.62
2022-08-02T00:11:01.249Z,38.61
2022-08-02T00:11:14.244Z,38.69
2022-08-02T00:11:27.086Z,38.74
2022-08-02T00:11:40.023Z,38.76
2022-08-02T00:11:56.544Z,38.65
2022-08-02T00:12:27.811Z,38.62
2022-08-02T00:12:40.701Z,38.60
2022-08-02T00:12:53.916Z,38.94
2022-08-02T00:13:08.174Z,38.83
2022-08-02T00:13:21.126Z,38.72
2022-08-02T00:13:34.033Z,39.01
2022-08-02T00:13:46.912Z,38.57
2022-08-02T00:13:59.916Z,38.74
2022-08-02T00:14:12.813Z,38.75
2022-08-02T00:14:25.722Z,38.66
2022-08-02T00:14:38.645Z,38.58
2022-08-02T00:14:51.662Z,38.50
2022-08-02T00:15:06.124Z,38.47
2022-08-02T00:15:18.996Z,38.70
2022-08-02T00:15:31.897Z,38.75
2022-08-02T00:15:44.893Z,38.48
2022-08-02T00:15:57.779Z,38.57
2022-08-02T00:16:10.704Z,38.56
2022-08-02T00:16:37.577Z,38.72
2022-08-02T00:16:51.475Z,39.11
2022-08-02T00:17:05.458Z,38.88
2022-08-02T00:17:18.334Z,38.99
2022-08-02T00:17:31.251Z,39.11
2022-08-02T00:17:44.846Z,39.11
2022-08-02T00:17:59.289Z,39.15
2022-08-02T00:18:12.172Z,39.05
2022-08-02T00:18:25.077Z,38.98
2022-08-02T00:18:38.288Z,39.07
2022-08-02T00:18:51.177Z,39.04
2022-08-02T00:19:04.079Z,39.04
2022-08-02T00:19:17.140Z,39.04
2022-08-02T00:19:30.018Z,38.92
2022-08-02T00:19:42.974Z,38.85
2022-08-02T00:19:55.875Z,38.85
2022-08-02T00:20:09.254Z,38.78
2022-08-02T00:20:22.174Z,38.71
2022-08-02T00:20:35.071Z,38.71
2022-08-02T00:20:47.937Z,38.72
2022-08-02T00:21:00.808Z,38.69
2022-08-02T00:21:13.704Z,38.68
2022-08-02T00:21:27.468Z,38.71
2022-08-02T00:21:40.361Z,38.75
2022-08-02T00:21:53.282Z,38.78
2022-08-02T00:22:06.257Z,38.78
2022-08-02T00:22:19.158Z,38.74
2022-08-02T00:22:32.206Z,38.70
2022-08-02T00:22:45.103Z,38.69
2022-08-02T00:22:57.993Z,38.66
2022-08-02T00:23:10.880Z,38.77
2022-08-02T00:23:23.766Z,38.64
2022-08-02T00:24:03.265Z,39.35
2022-08-02T00:24:29.820Z,39.40
2022-08-02T00:24:42.310Z,39.01
2022-08-02T00:24:55.192Z,38.92
2022-08-02T00:25:08.320Z,38.91
2022-08-02T00:25:21.720Z,38.90
2022-08-02T00:25:34.611Z,38.90
2022-08-02T00:25:54.480Z,39.03
2022-08-02T00:26:08.474Z,38.93
2022-08-02T00:26:21.332Z,38.66
2022-08-02T00:26:34.579Z,38.66
2022-08-02T00:26:47.650Z,38.67
2022-08-02T00:27:00.522Z,38.63
2022-08-02T00:27:13.388Z,38.61
2022-08-02T00:27:26.619Z,38.83
2022-08-02T00:27:39.490Z,38.79
2022-08-02T00:27:52.557Z,38.73
2022-08-02T00:28:05.598Z,38.71
2022-08-02T00:28:21.869Z,38.72
2022-08-02T00:28:40.922Z,38.79
2022-08-02T00:28:53.822Z,38.83
2022-08-02T00:29:06.883Z,38.84
2022-08-02T00:29:19.948Z,38.94
2022-08-02T00:29:33.393Z,38.96
2022-08-02T00:29:53.079Z,38.92
2022-08-02T00:30:06.956Z,38.87
2022-08-02T00:30:19.891Z,38.78
2022-08-02T00:30:32.788Z,38.76
2022-08-02T00:30:45.725Z,38.73
2022-08-02T00:30:58.873Z,38.76
2022-08-02T00:31:11.826Z,38.78
2022-08-02T00:31:25.757Z,38.80
2022-08-02T00:31:39.140Z,38.81
2022-08-02T00:31:51.986Z,38.80
2022-08-02T00:32:05.252Z,38.74
2022-08-02T00:32:18.321Z,38.74
2022-08-02T00:32:31.224Z,38.77
2022-08-02T00:32:44.105Z,38.74
2022-08-02T00:32:56.964Z,38.77
2022-08-02T00:33:10.094Z,38.93
2022-08-02T00:34:05.636Z,38.77
2022-08-02T00:34:28.046Z,38.68
2022-08-02T00:34:31.991Z,38.99
2022-08-02T00:34:48.009Z,38.71
2022-08-02T00:35:00.980Z,38.75
2022-08-02T00:35:13.868Z,38.82
2022-08-02T00:35:26.798Z,38.91
2022-08-02T00:35:40.724Z,38.92
2022-08-02T00:35:53.757Z,39.00
2022-08-02T00:36:07.845Z,38.97
2022-08-02T00:36:20.780Z,38.86
2022-08-02T00:36:33.699Z,38.79
2022-08-02T00:36:47.077Z,38.69
2022-08-02T00:37:00.122Z,38.64
2022-08-02T00:37:13.156Z,38.64
2022-08-02T00:37:26.209Z,38.66
2022-08-02T00:37:40.757Z,38.65
2022-08-02T00:37:53.609Z,38.68
2022-08-02T00:38:06.544Z,38.64
2022-08-02T00:38:19.416Z,38.65
2022-08-02T00:38:32.372Z,38.62
2022-08-02T00:38:46.408Z,38.71
2022-08-02T00:38:59.362Z,38.73
2022-08-02T00:39:33.800Z,38.71
2022-08-02T00:39:45.115Z,38.72
2022-08-02T00:39:58.714Z,38.73
2022-08-02T00:40:11.889Z,38.76
2022-08-02T00:40:24.730Z,38.74
2022-08-02T00:40:37.642Z,38.77
2022-08-02T00:40:54.243Z,38.84
2022-08-02T00:41:14.662Z,38.82
2022-08-02T00:41:27.952Z,38.81
2022-08-02T00:41:48.423Z,38.79
2022-08-02T00:42:01.352Z,38.75
2022-08-02T00:42:15.225Z,38.73
2022-08-02T00:42:28.557Z,38.77
2022-08-02T00:42:41.731Z,38.82
2022-08-02T00:43:05.168Z,38.82
2022-08-02T00:43:18.057Z,38.80
2022-08-02T00:43:31.242Z,38.78
2022-08-02T00:43:44.915Z,38.72
2022-08-02T00:43:57.784Z,38.77
2022-08-02T00:44:10.841Z,38.89
2022-08-02T00:44:25.672Z,38.93
2022-08-02T00:44:38.881Z,38.91
2022-08-02T00:44:51.829Z,38.88
2022-08-02T00:45:04.994Z,38.84
2022-08-02T00:45:18.232Z,38.83
2022-08-02T00:46:03.521Z,38.81
2022-08-02T00:46:04.392Z,38.84
2022-08-02T00:46:18.850Z,38.95
2022-08-02T00:46:31.722Z,39.04
2022-08-02T00:46:44.676Z,38.99
2022-08-02T00:46:57.523Z,38.97
2022-08-02T00:47:10.849Z,38.97
2022-08-02T00:47:32.088Z,38.96
2022-08-02T00:47:44.951Z,38.95
2022-08-02T00:47:58.383Z,38.93
2022-08-02T00:48:12.257Z,38.86
2022-08-02T00:48:25.264Z,38.84
2022-08-02T00:48:41.334Z,38.88
2022-08-02T00:48:56.203Z,38.93
2022-08-02T00:49:11.430Z,38.89
2022-08-02T00:49:27.595Z,38.92
2022-08-02T00:49:40.543Z,38.91
2022-08-02T00:49:53.454Z,38.98
2022-08-02T00:50:06.558Z,38.94
2022-08-02T00:50:19.581Z,38.93
2022-08-02T00:50:33.284Z,38.97
2022-08-02T00:50:46.256Z,38.99
2022-08-02T00:50:59.134Z,39.03
2022-08-02T00:51:12.369Z,39.00
2022-08-02T00:51:25.228Z,38.99
2022-08-02T00:51:38.531Z,38.95
2022-08-02T00:51:51.534Z,38.93
2022-08-02T00:52:10.896Z,38.92
2022-08-02T00:52:24.630Z,38.95
2022-08-02T00:52:37.659Z,38.95
2022-08-02T00:52:50.613Z,39.00
2022-08-02T00:53:03.839Z,39.00
2022-08-02T00:53:16.836Z,39.04
2022-08-02T00:53:29.726Z,39.08
2022-08-02T00:53:43.043Z,39.05
2022-08-02T00:53:55.901Z,39.01
2022-08-02T00:54:08.942Z,39.05
2022-08-02T00:54:23.646Z,38.98
2022-08-02T00:54:36.529Z,39.03
2022-08-02T00:54:54.197Z,39.09
2022-08-02T00:55:07.465Z,39.03
2022-08-02T00:55:23.548Z,39.02
2022-08-02T00:55:43.965Z,39.02
2022-08-02T00:55:57.108Z,39.07
2022-08-02T00:56:10.505Z,39.04
2022-08-02T00:56:23.820Z,39.04
2022-08-02T00:56:36.679Z,38.99
2022-08-02T00:56:51.240Z,38.96
2022-08-02T00:57:04.226Z,38.99
2022-08-02T00:57:17.122Z,39.00
2022-08-02T00:57:30.006Z,39.06
2022-08-02T00:57:43.064Z,39.06
2022-08-02T00:57:55.986Z,39.05
2022-08-02T00:58:09.294Z,39.02
2022-08-02T00:58:22.476Z,38.97
2022-08-02T00:58:35.331Z,38.99
2022-08-02T00:58:48.308Z,39.01
2022-08-02T00:59:05.254Z,39.07
2022-08-02T00:59:18.445Z,39.10
2022-08-02T00:59:31.499Z,39.05
2022-08-02T00:59:46.664Z,39.03
2022-08-02T00:59:59.715Z,39.01
2022-08-02T01:00:12.937Z,38.97
2022-08-02T01:00:30.023Z,39.01
2022-08-02T01:00:43.032Z,39.01
2022-08-02T01:00:57.648Z,39.01
2022-08-02T01:01:10.594Z,39.02
2022-08-02T01:01:38.585Z,39.06
2022-08-02T01:02:10.355Z,39.04
2022-08-02T01:02:23.647Z,39.10
2022-08-02T01:02:36.542Z,39.13
2022-08-02T01:02:49.510Z,39.17
2022-08-02T01:03:02.407Z,39.14
2022-08-02T01:03:15.705Z,39.10
2022-08-02T01:03:28.627Z,39.06
2022-08-02T01:03:41.567Z,39.04
2022-08-02T01:03:54.589Z,38.99
2022-08-02T01:04:08.517Z,39.02
2022-08-02T01:04:30.688Z,39.05
2022-08-02T01:04:45.266Z,39.05
2022-08-02T01:04:58.131Z,39.06
2022-08-02T01:05:11.102Z,39.12
2022-08-02T01:05:24.038Z,39.08
2022-08-02T01:05:55.804Z,39.09
2022-08-02T01:06:11.446Z,39.11
2022-08-02T01:06:24.687Z,39.13
2022-08-02T01:06:40.306Z,39.19
2022-08-02T01:06:53.302Z,39.23
2022-08-02T01:07:12.655Z,39.25
2022-08-02T01:07:27.058Z,39.26
2022-08-02T01:07:44.494Z,39.17
2022-08-02T01:07:57.984Z,39.09
2022-08-02T01:08:11.085Z,39.08
2022-08-02T01:08:29.323Z,39.12
2022-08-02T01:08:44.772Z,39.10
2022-08-02T01:08:57.647Z,39.09
2022-08-02T01:09:10.608Z,39.07
2022-08-02T01:09:24.062Z,39.01
2022-08-02T01:09:36.968Z,39.05
2022-08-02T01:09:50.294Z,39.08
2022-08-02T01:10:03.599Z,39.09
2022-08-02T01:10:16.503Z,39.13
2022-08-02T01:10:29.763Z,39.15
2022-08-02T01:10:42.623Z,39.13
2022-08-02T01:10:55.728Z,39.21
2022-08-02T01:11:09.307Z,39.24
2022-08-02T01:11:22.184Z,39.29
2022-08-02T01:11:35.451Z,39.33
2022-08-02T01:11:48.333Z,39.22
2022-08-02T01:12:02.611Z,39.20
2022-08-02T01:12:16.163Z,39.17
2022-08-02T01:12:29.257Z,39.14
2022-08-02T01:12:42.184Z,39.22
2022-08-02T01:12:55.123Z,39.19
2022-08-02T01:13:08.126Z,39.20
2022-08-02T01:13:21.032Z,39.19
2022-08-02T01:13:33.921Z,39.16
2022-08-02T01:13:46.813Z,39.19
2022-08-02T01:14:08.525Z,39.20
2022-08-02T01:14:21.478Z,39.22
2022-08-02T01:14:34.400Z,39.27
2022-08-02T01:14:48.704Z,39.31
2022-08-02T01:15:09.203Z,39.32
2022-08-02T01:15:22.373Z,39.32
2022-08-02T01:15:53.126Z,39.26
2022-08-02T01:16:12.158Z,39.25
2022-08-02T01:16:26.597Z,39.24
2022-08-02T01:16:48.405Z,39.21
2022-08-02T01:17:19.757Z,39.22
2022-08-02T01:18:00.467Z,39.21
2022-08-02T01:18:24.524Z,39.24
2022-08-02T01:18:40.631Z,39.25
2022-08-02T01:18:58.062Z,39.31
2022-08-02T01:19:23.037Z,39.29
2022-08-02T01:19:45.805Z,39.35
2022-08-02T01:20:36.449Z,39.28
2022-08-02T01:21:11.857Z,39.19
2022-08-02T01:21:47.991Z,39.30
2022-08-02T01:22:58.588Z,39.29
2022-08-02T01:23:38.889Z,39.41
2022-08-02T01:24:03.532Z,39.49
2022-08-02T01:24:24.005Z,39.49
2022-08-02T01:25:01.550Z,39.51
2022-08-02T01:25:38.096Z,39.50
2022-08-02T01:26:00.137Z,39.46
2022-08-02T01:26:27.943Z,39.50
2022-08-02T01:27:14.516Z,39.50
2022-08-02T01:27:32.515Z,39.50
2022-08-02T01:28:03.296Z,39.60
2022-08-02T01:28:40.674Z,39.57
2022-08-02T01:29:04.140Z,39.56
2022-08-02T01:29:18.519Z,39.54
2022-08-02T01:29:42.018Z,39.53
2022-08-02T01:29:57.232Z,39.51
2022-08-02T01:30:10.158Z,39.58
2022-08-02T01:30:23.279Z,39.58
2022-08-02T01:30:36.132Z,39.63
2022-08-02T01:30:49.671Z,39.66
2022-08-02T01:31:31.417Z,39.65
2022-08-02T01:31:51.205Z,39.66
2022-08-02T01:32:13.687Z,39.61
2022-08-02T01:32:32.152Z,39.61
2022-08-02T01:32:50.665Z,39.64
2022-08-02T01:33:03.858Z,39.73
2022-08-02T01:33:18.133Z,39.71
2022-08-02T01:33:35.900Z,39.68
2022-08-02T01:34:11.495Z,39.67
2022-08-02T01:34:48.943Z,39.60
2022-08-02T01:35:54.093Z,39.58
2022-08-02T01:36:07.610Z,39.52
2022-08-02T01:36:20.839Z,39.55
2022-08-02T01:36:39.247Z,39.53
2022-08-02T01:37:04.209Z,39.48
2022-08-02T01:37:23.025Z,39.58
2022-08-02T01:37:38.667Z,39.60
2022-08-02T01:38:02.419Z,39.63
2022-08-02T01:38:20.454Z,39.62
2022-08-02T01:38:35.770Z,39.65
2022-08-02T01:38:50.375Z,39.60
2022-08-02T01:39:05.337Z,39.60
2022-08-02T01:39:27.417Z,39.60
2022-08-02T01:39:46.340Z,39.61
2022-08-02T01:40:03.196Z,39.60
2022-08-02T01:40:23.550Z,39.59
2022-08-02T01:40:37.581Z,39.58
2022-08-02T01:40:52.401Z,39.64
2022-08-02T01:41:05.493Z,39.71
2022-08-02T01:41:21.749Z,39.70
2022-08-02T01:41:34.763Z,39.72
2022-08-02T01:41:47.724Z,39.70
2022-08-02T01:42:06.597Z,39.71
2022-08-02T01:42:19.731Z,39.71
2022-08-02T01:42:33.083Z,39.70
2022-08-02T01:42:49.049Z,39.68
2022-08-02T01:43:02.168Z,39.70
2022-08-02T01:43:17.786Z,39.64
2022-08-02T01:43:30.856Z,39.65
2022-08-02T01:43:43.766Z,39.64
2022-08-02T01:44:00.281Z,39.67
2022-08-02T01:44:13.530Z,39.69
2022-08-02T01:44:27.782Z,39.71
2022-08-02T01:44:48.674Z,39.72
2022-08-02T01:45:01.835Z,39.65
2022-08-02T01:45:15.180Z,39.62
2022-08-02T01:45:30.785Z,39.64
2022-08-02T01:45:44.221Z,39.67
2022-08-02T01:45:57.140Z,39.68
2022-08-02T01:46:11.283Z,39.62
2022-08-02T01:46:24.824Z,39.63
2022-08-02T01:46:37.993Z,39.64
2022-08-02T01:46:51.047Z,39.62
2022-08-02T01:47:11.143Z,39.64
2022-08-02T01:47:29.190Z,39.71
2022-08-02T01:47:42.872Z,39.73
2022-08-02T01:47:55.996Z,39.77
2022-08-02T01:48:09.058Z,39.77
2022-08-02T01:48:21.950Z,39.79
2022-08-02T01:48:35.050Z,39.80
2022-08-02T01:48:48.309Z,39.77
2022-08-02T01:49:04.471Z,39.72
2022-08-02T01:49:22.071Z,39.69
2022-08-02T01:49:35.068Z,39.73
2022-08-02T01:49:53.564Z,39.69
2022-08-02T01:50:07.249Z,39.73
2022-08-02T01:50:23.987Z,39.75
2022-08-02T01:50:37.106Z,39.72
2022-08-02T01:50:49.994Z,39.72
2022-08-02T01:51:03.321Z,39.69
2022-08-02T01:51:17.770Z,39.69
2022-08-02T01:51:49.480Z,39.71
2022-08-02T01:52:21.871Z,39.75
2022-08-02T01:52:37.980Z,39.78
2022-08-02T01:52:54.958Z,39.77
2022-08-02T01:53:09.103Z,39.78
2022-08-02T01:53:22.202Z,39.83
2022-08-02T01:53:35.046Z,39.87
2022-08-02T01:53:49.981Z,39.83
2022-08-02T01:54:02.987Z,39.83
2022-08-02T01:54:17.640Z,39.83
2022-08-02T01:54:31.369Z,39.81
2022-08-02T01:54:44.263Z,39.75
2022-08-02T01:54:58.670Z,39.87
2022-08-02T01:55:18.477Z,39.77
2022-08-02T01:55:58.052Z,39.75
2022-08-02T01:56:07.785Z,39.76
2022-08-02T01:56:20.826Z,39.85
2022-08-02T01:56:34.219Z,39.80
2022-08-02T01:56:47.108Z,39.76
2022-08-02T01:57:00.275Z,39.73
2022-08-02T01:57:15.014Z,39.74
2022-08-02T01:57:28.850Z,39.81
2022-08-02T01:57:45.723Z,39.80
2022-08-02T01:58:00.632Z,39.78
2022-08-02T01:58:14.929Z,39.80
2022-08-02T01:58:31.915Z,39.82
2022-08-02T01:58:44.879Z,39.84
2022-08-02T01:58:57.861Z,39.81
2022-08-02T01:59:13.456Z,39.79
2022-08-02T01:59:26.564Z,39.82
2022-08-02T01:59:40.199Z,39.84
2022-08-02T01:59:53.453Z,39.80
2022-08-02T02:00:08.168Z,39.82
2022-08-02T02:00:22.285Z,39.85
2022-08-02T02:00:39.240Z,39.85
2022-08-02T02:00:52.302Z,39.88
2022-08-02T02:01:05.783Z,39.84
2022-08-02T02:01:19.160Z,39.83
2022-08-02T02:01:32.823Z,39.82
2022-08-02T02:01:46.236Z,39.79
2022-08-02T02:01:59.816Z,39.83
2022-08-02T02:02:13.424Z,39.84
2022-08-02T02:02:31.381Z,39.88
2022-08-02T02:02:47.783Z,39.91
2022-08-02T02:03:01.253Z,39.93
2022-08-02T02:03:21.644Z,39.93
2022-08-02T02:03:34.518Z,39.87
2022-08-02T02:03:47.931Z,39.78
2022-08-02T02:04:01.136Z,39.82
2022-08-02T02:04:14.300Z,39.87
2022-08-02T02:04:28.564Z,39.90
2022-08-02T02:04:42.596Z,39.89
2022-08-02T02:04:56.027Z,39.92
2022-08-02T02:05:11.926Z,39.88
2022-08-02T02:05:26.545Z,39.89
2022-08-02T02:05:39.621Z,39.86
2022-08-02T02:05:56.014Z,39.85
2022-08-02T02:06:09.989Z,39.93
2022-08-02T02:06:23.117Z,39.88
2022-08-02T02:06:39.503Z,39.84
2022-08-02T02:06:52.635Z,39.88
2022-08-02T02:07:05.870Z,39.88
2022-08-02T02:07:19.350Z,39.88
2022-08-02T02:07:33.374Z,39.88
2022-08-02T02:07:48.791Z,39.88
2022-08-02T02:08:04.459Z,39.90
2022-08-02T02:08:27.238Z,39.86
2022-08-02T02:08:41.684Z,39.91
2022-08-02T02:08:54.631Z,39.98
2022-08-02T02:09:07.534Z,39.98
2022-08-02T02:09:20.945Z,39.99
2022-08-02T02:09:37.359Z,39.97
2022-08-02T02:10:04.124Z,39.94
2022-08-02T02:10:21.402Z,39.92
2022-08-02T02:10:35.720Z,39.92
2022-08-02T02:10:48.590Z,39.93
2022-08-02T02:12:09.379Z,39.93
2022-08-02T02:12:09.479Z,39.88
2022-08-02T02:12:14.453Z,39.85
2022-08-02T02:12:27.755Z,39.89
2022-08-02T02:12:40.625Z,39.94
2022-08-02T02:12:53.520Z,39.88
2022-08-02T02:13:12.394Z,39.87
2022-08-02T02:13:33.402Z,39.86
2022-08-02T02:13:46.605Z,39.86
2022-08-02T02:13:59.661Z,39.97
2022-08-02T02:14:13.078Z,39.99
2022-08-02T02:14:26.062Z,39.96
2022-08-02T02:14:39.098Z,39.99
2022-08-02T02:14:52.332Z,40.00
2022-08-02T02:15:06.070Z,40.00
2022-08-02T02:15:19.022Z,40.01
2022-08-02T02:15:34.877Z,40.02
2022-08-02T02:15:49.615Z,40.11
2022-08-02T02:16:04.141Z,40.08
2022-08-02T02:16:17.080Z,40.12
2022-08-02T02:16:32.046Z,40.16
2022-08-02T02:16:45.302Z,40.15
2022-08-02T02:16:58.723Z,40.12
2022-08-02T02:17:52.922Z,40.08
2022-08-02T02:18:10.722Z,40.08
2022-08-02T02:18:23.420Z,40.03
2022-08-02T02:18:42.054Z,40.08
2022-08-02T02:18:55.096Z,40.09
2022-08-02T02:19:08.299Z,40.08
2022-08-02T02:19:22.690Z,40.10
2022-08-02T02:19:37.095Z,40.13
2022-08-02T02:19:50.005Z,40.09
2022-08-02T02:20:03.038Z,40.10
2022-08-02T02:20:17.161Z,40.06
2022-08-02T02:20:30.268Z,40.06
2022-08-02T02:20:43.534Z,40.09
2022-08-02T02:20:56.452Z,40.09
2022-08-02T02:21:09.444Z,40.02
2022-08-02T02:21:22.332Z,40.01
2022-08-02T02:21:35.284Z,40.10
2022-08-02T02:21:49.437Z,40.13
2022-08-02T02:22:02.371Z,40.11
2022-08-02T02:22:15.241Z,40.10
2022-08-02T02:22:28.118Z,40.09
2022-08-02T02:22:41.030Z,40.08
2022-08-02T02:22:53.910Z,40.10
2022-08-02T02:23:06.818Z,40.14
2022-08-02T02:23:24.435Z,40.12
2022-08-02T02:23:38.859Z,40.07
2022-08-02T02:23:53.562Z,40.08
2022-08-02T02:24:09.115Z,40.01
2022-08-02T02:24:24.649Z,40.10
2022-08-02T02:24:37.669Z,40.08
2022-08-02T02:24:50.543Z,40.05
2022-08-02T02:25:06.357Z,40.04
2022-08-02T02:25:23.707Z,40.03
2022-08-02T02:25:49.163Z,40.04
2022-08-02T02:26:04.193Z,40.06
2022-08-02T02:26:17.540Z,40.12
2022-08-02T02:26:42.906Z,40.11
2022-08-02T02:27:05.173Z,40.17
2022-08-02T02:27:18.139Z,40.17
2022-08-02T02:27:31.062Z,40.19
2022-08-02T02:27:56.229Z,40.25
2022-08-02T02:28:13.291Z,40.18
2022-08-02T02:28:30.477Z,40.13
2022-08-02T02:28:43.396Z,40.13
2022-08-02T02:28:56.266Z,40.18
2022-08-02T02:29:09.340Z,40.15
2022-08-02T02:29:22.457Z,40.23
2022-08-02T02:29:35.410Z,40.17
2022-08-02T02:29:48.357Z,40.19
2022-08-02T02:30:01.259Z,40.22
2022-08-02T02:30:14.422Z,40.26
2022-08-02T02:30:27.568Z,40.24
2022-08-02T02:30:41.926Z,40.16
2022-08-02T02:31:00.649Z,40.19
2022-08-02T02:31:14.530Z,40.26
2022-08-02T02:31:27.450Z,40.18
2022-08-02T02:31:42.750Z,40.37
2022-08-02T02:31:55.734Z,40.27
2022-08-02T02:32:09.056Z,40.23
2022-08-02T02:32:22.121Z,40.30
2022-08-02T02:32:35.063Z,40.23
2022-08-02T02:32:48.070Z,40.17
2022-08-02T02:33:02.386Z,40.11
2022-08-02T02:33:17.463Z,40.19
2022-08-02T02:33:31.191Z,40.20
2022-08-02T02:34:05.294Z,40.10
2022-08-02T02:34:23.249Z,40.16
2022-08-02T02:34:38.525Z,40.21
2022-08-02T02:34:51.461Z,40.24
2022-08-02T02:35:04.590Z,40.28
2022-08-02T02:35:17.496Z,40.27
2022-08-02T02:35:32.534Z,40.29
2022-08-02T02:35:45.368Z,40.28
2022-08-02T02:35:58.369Z,40.25
2022-08-02T02:36:11.266Z,40.26
2022-08-02T02:36:24.111Z,40.21
2022-08-02T02:36:49.706Z,40.19
2022-08-02T02:37:04.303Z,40.21
2022-08-02T02:37:22.135Z,40.27
2022-08-02T02:37:35.078Z,40.31
2022-08-02T02:37:48.627Z,40.30
2022-08-02T02:38:02.554Z,40.25
2022-08-02T02:38:16.794Z,40.25
2022-08-02T02:38:31.863Z,40.24
2022-08-02T02:38:44.730Z,40.32
2022-08-02T02:38:57.859Z,40.26
2022-08-02T02:39:13.550Z,40.26
2022-08-02T02:39:27.142Z,40.26
2022-08-02T02:39:40.435Z,40.32
2022-08-02T02:39:55.027Z,40.30
2022-08-02T02:40:08.797Z,40.30
2022-08-02T02:40:22.269Z,40.32
2022-08-02T02:40:35.113Z,40.32
2022-08-02T02:40:48.085Z,40.24
2022-08-02T02:41:02.100Z,40.24
2022-08-02T02:41:15.231Z,40.31
2022-08-02T02:41:29.158Z,40.33
2022-08-02T02:41:43.027Z,40.36
2022-08-02T02:41:57.034Z,40.35
2022-08-02T02:42:12.498Z,40.31
2022-08-02T02:42:30.497Z,40.27
2022-08-02T02:42:49.322Z,40.27
2022-08-02T02:43:02.484Z,40.32
2022-08-02T02:43:15.679Z,40.38
2022-08-02T02:43:30.392Z,40.43
2022-08-02T02:43:43.632Z,40.44
2022-08-02T02:44:05.023Z,40.41
2022-08-02T02:44:19.895Z,40.31
2022-08-02T02:44:38.606Z,40.30
2022-08-02T02:44:52.593Z,40.25
2022-08-02T02:45:06.051Z,40.27
2022-08-02T02:45:19.826Z,40.31
2022-08-02T02:45:32.889Z,40.25
2022-08-02T02:45:45.792Z,40.25
2022-08-02T02:45:59.121Z,40.27
2022-08-02T02:46:12.008Z,40.27
2022-08-02T02:46:25.160Z,40.27
2022-08-02T02:46:40.576Z,40.29
2022-08-02T02:46:54.437Z,40.27
2022-08-02T02:47:08.230Z,40.22
2022-08-02T02:47:21.245Z,40.20
2022-08-02T02:47:41.475Z,40.26
2022-08-02T02:47:55.549Z,40.28
2022-08-02T02:48:08.580Z,40.27
2022-08-02T02:48:21.914Z,40.26
2022-08-02T02:48:35.555Z,40.30
2022-08-02T02:48:50.458Z,40.29
2022-08-02T02:49:03.471Z,40.31
2022-08-02T02:49:16.536Z,40.36
2022-08-02T02:49:29.578Z,40.38
2022-08-02T02:49:44.107Z,40.36
2022-08-02T02:49:57.810Z,40.34
2022-08-02T02:50:11.249Z,40.36
2022-08-02T02:50:24.633Z,40.38
2022-08-02T02:50:37.661Z,40.44
2022-08-02T02:50:51.465Z,40.44
2022-08-02T02:51:04.995Z,40.35
2022-08-02T02:51:18.426Z,40.33
2022-08-02T02:51:31.295Z,40.32
2022-08-02T02:51:48.171Z,40.35
2022-08-02T02:52:01.257Z,40.36
2022-08-02T02:52:15.943Z,40.33
2022-08-02T02:52:33.403Z,40.33
2022-08-02T02:52:46.402Z,40.36
2022-08-02T02:52:59.322Z,40.37
2022-08-02T02:53:12.282Z,40.33
2022-08-02T02:53:25.810Z,40.35
2022-08-02T02:54:30.693Z,40.38
2022-08-02T02:54:33.296Z,40.37
2022-08-02T02:54:45.630Z,40.33
2022-08-02T02:54:58.657Z,40.37
2022-08-02T02:55:12.197Z,40.36
2022-08-02T02:55:25.616Z,40.37
2022-08-02T02:55:39.539Z,40.42
2022-08-02T02:56:01.996Z,40.42
2022-08-02T02:56:16.574Z,40.40
2022-08-02T02:56:29.572Z,40.44
2022-08-02T02:56:42.867Z,40.43
2022-08-02T02:56:55.812Z,40.40
2022-08-02T02:57:08.897Z,40.45
2022-08-02T02:57:21.743Z,40.47
2022-08-02T02:57:35.785Z,40.44
2022-08-02T02:57:48.650Z,40.43
2022-08-02T02:58:01.543Z,40.46
2022-08-02T02:58:14.851Z,40.48
2022-08-02T02:58:28.956Z,40.45
2022-08-02T02:58:42.011Z,40.48
2022-08-02T02:58:55.308Z,40.52
2022-08-02T02:59:08.756Z,40.56
2022-08-02T02:59:21.794Z,40.55
2022-08-02T02:59:35.383Z,40.59
2022-08-02T02:59:49.998Z,40.63
2022-08-02T03:00:07.457Z,40.62
2022-08-02T03:00:40.536Z,40.63
2022-08-02T03:01:12.307Z,40.62
2022-08-02T03:01:55.714Z,40.61
2022-08-02T03:02:01.887Z,40.63
2022-08-02T03:02:16.298Z,40.62
2022-08-02T03:02:34.066Z,40.60
2022-08-02T03:02:48.985Z,40.63
2022-08-02T03:03:01.931Z,40.64
2022-08-02T03:03:14.825Z,40.61
2022-08-02T03:03:32.845Z,40.57
2022-08-02T03:03:45.919Z,40.52
2022-08-02T03:04:05.097Z,40.54
2022-08-02T03:04:18.231Z,40.56
2022-08-02T03:04:55.424Z,40.55
2022-08-02T03:05:04.443Z,40.61
2022-08-02T03:05:17.549Z,40.64
2022-08-02T03:05:34.433Z,40.64
2022-08-02T03:05:47.519Z,40.62
2022-08-02T03:06:00.431Z,40.58
2022-08-02T03:06:15.611Z,40.60
2022-08-02T03:06:29.942Z,40.64
2022-08-02T03:06:43.274Z,40.69
2022-08-02T03:06:56.162Z,40.69
2022-08-02T03:07:09.861Z,40.65
2022-08-02T03:07:22.922Z,40.64
2022-08-02T03:07:35.953Z,40.63
2022-08-02T03:07:48.839Z,40.62
2022-08-02T03:08:01.866Z,40.64
2022-08-02T03:08:14.967Z,40.61
2022-08-02T03:08:27.902Z,40.54
2022-08-02T03:08:40.762Z,40.53
2022-08-02T03:08:54.999Z,40.54
2022-08-02T03:09:08.224Z,40.50
2022-08-02T03:09:23.072Z,40.65
2022-08-02T03:09:35.922Z,40.65
2022-08-02T03:09:54.633Z,40.68
2022-08-02T03:10:08.660Z,40.63
2022-08-02T03:10:21.693Z,40.72
2022-08-02T03:10:34.655Z,40.74
2022-08-02T03:10:47.998Z,40.65
2022-08-02T03:11:00.903Z,40.62
2022-08-02T03:11:14.004Z,40.62
2022-08-02T03:11:30.335Z,40.60
2022-08-02T03:11:43.215Z,40.63
2022-08-02T03:11:56.320Z,40.61
2022-08-02T03:12:10.165Z,40.60
2022-08-02T03:12:30.260Z,40.62
2022-08-02T03:12:44.615Z,40.63
2022-08-02T03:12:58.618Z,40.72
2022-08-02T03:13:33.313Z,40.70
2022-08-02T03:13:49.448Z,40.73
2022-08-02T03:14:03.840Z,40.72
2022-08-02T03:14:17.158Z,40.75
2022-08-02T03:14:30.119Z,40.74
2022-08-02T03:14:43.457Z,40.75
2022-08-02T03:15:02.112Z,40.75
2022-08-02T03:15:15.021Z,40.75
2022-08-02T03:15:28.101Z,40.73
2022-08-02T03:15:41.088Z,40.65
2022-08-02T03:15:53.933Z,40.62
2022-08-02T03:16:07.302Z,40.70
2022-08-02T03:16:21.237Z,40.64
2022-08-02T03:16:34.136Z,40.57
2022-08-02T03:16:53.763Z,40.57
2022-08-02T03:17:06.632Z,40.56
2022-08-02T03:17:21.046Z,40.62
2022-08-02T03:17:43.697Z,40.67
2022-08-02T03:17:57.429Z,40.68
2022-08-02T03:18:10.295Z,40.66
2022-08-02T03:18:38.114Z,40.66
2022-08-02T03:18:51.140Z,40.67
2022-08-02T03:19:08.672Z,40.70
2022-08-02T03:19:22.454Z,40.78
2022-08-02T03:19:36.354Z,40.71
2022-08-02T03:20:16.877Z,40.74
2022-08-02T03:20:29.934Z,40.76
2022-08-02T03:20:43.237Z,40.77
2022-08-02T03:21:06.310Z,40.80
2022-08-02T03:21:20.305Z,40.81
2022-08-02T03:21:33.362Z,40.80